Tedders, Kentucky
Current Conditions -  °F | °C
As of 5:53 AM on Friday 19 Dec 2014 (Local Time) from KLOZ Reporting Station
Overcast Overcast  
Wind Chill: 29°   Ceiling: 5500
Heat Index: 33°   Visibility: 10mi
Dew Point: 25°   Wind: 5mph
Humidity: 72%   Direction: 30°NNE
Pressure: 30.2"   Gusts: NA
Location:  36.865°N, 83.9507°W
Report Text: KLOZ 191053Z AUTO 03004KT 10SM OVC055 01/M04 A3020 RMK AO2 SLP235 T00061039
Loading
Personal Weather Stations






























Interactive Weather Map New forecast layout! Learn more

10-Day Weather Forecast

Advertisements
Track Severe Weather on mobile